createdAt,value
2018-02-17T00:02:10.674Z,4.30
2018-02-17T00:04:39.940Z,4.30
2018-02-17T00:07:08.309Z,4.30
2018-02-17T00:09:36.923Z,4.20
2018-02-17T00:12:05.950Z,4.10
2018-02-17T00:14:34.213Z,4.10
2018-02-17T00:17:02.574Z,4.10
2018-02-17T00:19:31.078Z,4.00
2018-02-17T00:21:59.378Z,3.90
2018-02-17T00:24:27.697Z,3.70
2018-02-17T00:26:56.079Z,3.60
2018-02-17T00:29:24.449Z,3.50
2018-02-17T00:31:52.760Z,3.50
2018-02-17T00:34:21.149Z,3.40
2018-02-17T00:36:50.192Z,3.40
2018-02-17T00:39:18.454Z,3.40
2018-02-17T00:41:47.188Z,3.30
2018-02-17T00:44:15.459Z,3.30
2018-02-17T00:46:43.732Z,3.30
2018-02-17T00:49:12.011Z,3.30
2018-02-17T00:51:40.292Z,3.30
2018-02-17T00:54:08.586Z,3.30
2018-02-17T00:56:36.863Z,3.30
2018-02-17T00:59:05.179Z,3.30
2018-02-17T01:01:33.449Z,3.30
2018-02-17T01:04:02.585Z,3.40
2018-02-17T01:06:34.713Z,3.40
2018-02-17T01:09:04.137Z,3.50
2018-02-17T01:11:32.419Z,3.50
2018-02-17T01:14:00.779Z,3.60
2018-02-17T01:16:29.088Z,3.60
2018-02-17T01:18:57.367Z,3.60
2018-02-17T01:21:25.664Z,3.60
2018-02-17T01:23:53.936Z,3.50
2018-02-17T01:26:22.989Z,3.50
2018-02-17T01:28:52.028Z,3.50
2018-02-17T01:31:20.327Z,3.50
2018-02-17T01:33:48.595Z,3.50
2018-02-17T01:36:17.292Z,3.60
2018-02-17T01:38:45.587Z,3.60
2018-02-17T01:41:13.856Z,3.60
2018-02-17T01:43:42.154Z,3.60
2018-02-17T01:46:11.202Z,3.70
2018-02-17T01:48:39.813Z,3.60
2018-02-17T01:51:08.092Z,3.70
2018-02-17T01:53:36.389Z,3.70
2018-02-17T01:56:04.669Z,3.70
2018-02-17T01:58:32.955Z,3.60
2018-02-17T02:01:02.090Z,3.50
2018-02-17T02:03:30.365Z,3.50
2018-02-17T02:05:58.646Z,3.40
2018-02-17T02:08:26.911Z,3.40
2018-02-17T02:10:55.494Z,3.30
2018-02-17T02:13:24.513Z,3.10
2018-02-17T02:15:52.782Z,3.10
2018-02-17T02:18:21.066Z,3.10
2018-02-17T02:20:49.334Z,3.00
2018-02-17T02:23:17.692Z,2.90
2018-02-17T02:25:46.402Z,2.80
2018-02-17T02:28:15.848Z,2.70
2018-02-17T02:30:44.186Z,2.70
2018-02-17T02:33:12.530Z,2.70
2018-02-17T02:35:41.586Z,2.60
2018-02-17T02:38:09.856Z,2.50
2018-02-17T02:40:38.503Z,2.60
2018-02-17T02:43:07.524Z,2.50
2018-02-17T02:45:36.014Z,2.50
2018-02-17T02:48:04.298Z,2.50
2018-02-17T02:50:33.569Z,2.40
2018-02-17T02:53:02.614Z,2.40
2018-02-17T02:55:31.327Z,2.30
2018-02-17T02:58:00.399Z,2.40
2018-02-17T03:00:28.726Z,2.40
2018-02-17T03:02:58.072Z,2.30
2018-02-17T03:05:26.352Z,2.30
2018-02-17T03:07:54.622Z,2.30
2018-02-17T03:10:24.623Z,2.30
2018-02-17T03:12:52.983Z,2.20
2018-02-17T03:15:21.331Z,2.30
2018-02-17T03:17:49.657Z,2.20
2018-02-17T03:20:18.110Z,2.20
2018-02-17T03:22:47.133Z,2.00
2018-02-17T03:25:15.420Z,2.10
2018-02-17T03:27:43.709Z,2.00
2018-02-17T03:30:12.293Z,2.00
2018-02-17T03:32:40.558Z,1.90
2018-02-17T03:35:08.930Z,1.80
2018-02-17T03:37:37.419Z,1.70
2018-02-17T03:40:05.673Z,1.70
2018-02-17T03:42:33.999Z,1.70
2018-02-17T03:45:04.215Z,1.60
2018-02-17T03:47:32.524Z,1.50
2018-02-17T03:50:01.550Z,1.50
2018-02-17T03:52:29.841Z,1.50
2018-02-17T03:54:58.520Z,1.50
2018-02-17T03:57:27.069Z,1.50
2018-02-17T03:59:56.445Z,1.50
2018-02-17T04:02:24.717Z,1.50
2018-02-17T04:04:53.032Z,1.50
2018-02-17T04:07:22.562Z,1.50
2018-02-17T04:09:50.975Z,1.40
2018-02-17T04:12:19.223Z,1.40
2018-02-17T04:14:47.497Z,1.40
2018-02-17T04:17:15.778Z,1.50
2018-02-17T04:19:45.127Z,1.40
2018-02-17T04:22:13.387Z,1.40
2018-02-17T04:24:42.349Z,1.50
2018-02-17T04:27:10.607Z,1.40
2018-02-17T04:29:39.637Z,1.40
2018-02-17T04:32:07.939Z,1.40
2018-02-17T04:34:36.825Z,1.40
2018-02-17T04:37:05.174Z,1.40
2018-02-17T04:39:45.323Z,1.40
2018-02-17T04:55:47.465Z,1.20
2018-02-17T04:58:23.277Z,1.10
2018-02-17T05:00:52.342Z,1.10
2018-02-17T05:03:27.915Z,1.10
2018-02-17T05:06:11.469Z,1.00
2018-02-17T05:08:43.130Z,1.10
2018-02-17T05:11:11.408Z,1.00
2018-02-17T05:13:39.788Z,1.00
2018-02-17T05:16:22.982Z,1.00
2018-02-17T05:18:55.851Z,1.00
2018-02-17T05:21:25.241Z,0.90
2018-02-17T05:23:57.677Z,0.90
2018-02-17T05:26:32.024Z,0.90
2018-02-17T05:29:04.163Z,0.90
2018-02-17T05:31:33.216Z,0.80
2018-02-17T05:34:05.364Z,0.80
2018-02-17T05:36:36.021Z,0.90
2018-02-17T05:39:05.363Z,0.90
2018-02-17T05:54:57.222Z,0.90
2018-02-17T05:57:25.506Z,0.90
2018-02-17T05:59:53.867Z,0.90
2018-02-17T06:02:22.197Z,0.90
2018-02-17T06:04:50.487Z,0.90
2018-02-17T06:07:19.194Z,0.80
2018-02-17T06:09:47.472Z,0.80
2018-02-17T06:12:16.527Z,0.90
2018-02-17T06:14:44.797Z,0.80
2018-02-17T06:17:13.404Z,0.90
2018-02-17T06:19:41.834Z,0.90
2018-02-17T06:22:10.339Z,0.90
2018-02-17T06:24:38.737Z,1.00
2018-02-17T06:27:08.392Z,1.00
2018-02-17T06:29:36.704Z,1.00
2018-02-17T06:32:05.066Z,1.00
2018-02-17T06:34:33.373Z,1.00
2018-02-17T06:37:01.663Z,1.00
2018-02-17T06:39:30.206Z,1.10
2018-02-17T06:41:59.416Z,1.10
2018-02-17T06:44:27.680Z,1.10
2018-02-17T06:46:56.371Z,1.20
2018-02-17T06:49:24.730Z,1.20
2018-02-17T06:51:53.781Z,1.30
2018-02-17T06:54:22.096Z,1.30
2018-02-17T06:56:50.955Z,1.30
2018-02-17T06:59:19.276Z,1.40
2018-02-17T07:01:48.378Z,1.40
2018-02-17T07:04:17.514Z,1.40
2018-02-17T07:06:45.921Z,1.40
2018-02-17T07:09:14.264Z,1.40
2018-02-17T07:11:42.550Z,1.50
2018-02-17T07:14:10.911Z,1.40
2018-02-17T07:16:39.262Z,1.50
2018-02-17T07:19:08.083Z,1.60
2018-02-17T07:21:36.371Z,1.60
2018-02-17T07:24:04.660Z,1.60
2018-02-17T07:26:33.067Z,1.70
2018-02-17T07:29:01.391Z,1.70
2018-02-17T07:31:31.424Z,1.80
2018-02-17T07:33:59.712Z,1.80
2018-02-17T07:36:28.396Z,1.90
2018-02-17T07:38:56.684Z,1.90
2018-02-17T07:41:25.011Z,2.00
2018-02-17T07:49:56.706Z,2.20
2018-02-17T07:52:25.307Z,2.30
2018-02-17T07:54:53.627Z,2.40
2018-02-17T07:57:22.692Z,2.60
2018-02-17T07:59:51.025Z,2.60
2018-02-17T08:02:19.417Z,2.60
2018-02-17T08:04:47.748Z,2.80
2018-02-17T08:07:16.041Z,2.80
2018-02-17T08:09:44.365Z,3.00
2018-02-17T08:12:12.626Z,3.10
2018-02-17T08:14:40.913Z,3.10
2018-02-17T08:17:10.018Z,3.30
2018-02-17T08:19:39.492Z,3.40
2018-02-17T08:22:07.796Z,3.40
2018-02-17T08:24:36.206Z,3.50
2018-02-17T08:27:04.496Z,3.60
2018-02-17T08:29:32.850Z,3.80
2018-02-17T08:32:01.222Z,3.80
2018-02-17T08:34:30.247Z,4.00
2018-02-17T08:36:58.749Z,4.00
2018-02-17T08:39:27.156Z,4.10
2018-02-17T08:41:55.425Z,4.20
2018-02-17T08:44:23.798Z,4.20
2018-02-17T08:46:53.055Z,4.40
2018-02-17T08:49:21.364Z,4.40
2018-02-17T08:51:49.732Z,4.50
2018-02-17T08:54:18.018Z,4.50
2018-02-17T08:56:46.293Z,4.60
2018-02-17T08:59:14.605Z,4.60
2018-02-17T09:01:42.905Z,4.60
2018-02-17T09:04:11.215Z,4.70
2018-02-17T09:06:39.481Z,4.80
2018-02-17T09:09:08.334Z,4.80
2018-02-17T09:11:36.630Z,4.80
2018-02-17T09:14:05.771Z,4.90
2018-02-17T09:16:34.666Z,4.90
2018-02-17T09:19:02.947Z,5.00
2018-02-17T09:21:31.259Z,5.00
2018-02-17T09:23:59.536Z,5.10
2018-02-17T09:26:27.842Z,4.90
2018-02-17T09:28:56.899Z,5.20
2018-02-17T09:31:25.193Z,5.20
2018-02-17T09:33:53.535Z,5.30
2018-02-17T09:36:22.248Z,5.40
2018-02-17T09:38:50.515Z,5.50
2018-02-17T09:41:18.859Z,5.50
2018-02-17T09:43:47.134Z,5.60
2018-02-17T09:46:15.489Z,5.80
2018-02-17T09:48:43.795Z,5.80
2018-02-17T09:51:12.070Z,6.00
2018-02-17T09:53:40.732Z,6.10
2018-02-17T09:56:09.750Z,6.30
2018-02-17T09:58:38.056Z,6.30
2018-02-17T10:01:06.389Z,6.40
2018-02-17T10:03:35.467Z,6.50
2018-02-17T10:06:03.769Z,6.50
2018-02-17T10:08:32.893Z,6.80
2018-02-17T10:11:01.297Z,6.80
2018-02-17T10:13:29.964Z,6.80
2018-02-17T10:15:59.725Z,6.90
2018-02-17T10:18:28.460Z,6.90
2018-02-17T10:20:56.970Z,6.90
2018-02-17T10:23:25.410Z,6.90
2018-02-17T10:25:54.018Z,7.00
2018-02-17T10:28:22.559Z,7.00
2018-02-17T10:30:51.139Z,7.20
2018-02-17T10:33:19.743Z,7.30
2018-02-17T10:35:48.391Z,7.40
2018-02-17T10:38:17.393Z,7.50
2018-02-17T10:40:45.724Z,7.50
2018-02-17T10:43:14.010Z,7.70
2018-02-17T10:45:42.312Z,7.80
2018-02-17T10:48:10.605Z,7.90
2018-02-17T10:50:38.929Z,8.00
2018-02-17T10:53:07.301Z,8.10
2018-02-17T10:55:37.390Z,8.20
2018-02-17T10:58:06.439Z,8.30
2018-02-17T11:00:36.017Z,8.30
2018-02-17T11:03:05.105Z,8.30
2018-02-17T11:05:34.602Z,8.40
2018-02-17T11:08:02.902Z,8.30
2018-02-17T11:10:31.189Z,8.40
2018-02-17T11:13:03.077Z,8.40
2018-02-17T11:15:31.366Z,8.40
2018-02-17T11:17:59.704Z,8.40
2018-02-17T11:20:28.002Z,8.40
2018-02-17T11:22:56.599Z,8.50
2018-02-17T11:25:24.938Z,8.50
2018-02-17T11:27:53.593Z,8.40
2018-02-17T11:30:21.909Z,8.40
2018-02-17T11:32:50.212Z,8.40
2018-02-17T11:35:19.897Z,8.30
2018-02-17T11:37:48.934Z,8.40
2018-02-17T11:40:17.245Z,8.30
2018-02-17T11:42:45.520Z,8.40
2018-02-17T11:45:14.938Z,8.30
2018-02-17T11:47:43.342Z,8.40
2018-02-17T11:50:11.626Z,8.40
2018-02-17T11:52:39.939Z,8.40
2018-02-17T11:55:08.210Z,8.30
2018-02-17T11:57:36.525Z,8.40
2018-02-17T12:00:05.582Z,8.50
2018-02-17T12:02:33.992Z,8.60
2018-02-17T12:05:03.082Z,8.70
2018-02-17T12:07:33.593Z,8.70
2018-02-17T12:10:01.946Z,8.70
2018-02-17T12:12:31.237Z,8.80
2018-02-17T12:15:00.358Z,8.90
2018-02-17T12:17:29.290Z,8.90
2018-02-17T12:19:58.483Z,9.10
2018-02-17T12:22:27.646Z,9.20
2018-02-17T12:24:55.963Z,9.20
2018-02-17T12:27:24.241Z,9.20
2018-02-17T12:29:52.572Z,9.30
2018-02-17T12:32:20.878Z,9.20
2018-02-17T12:34:49.189Z,9.20
2018-02-17T12:37:18.246Z,9.40
2018-02-17T12:39:47.603Z,9.30
2018-02-17T12:42:16.781Z,9.50
2018-02-17T12:44:45.098Z,9.50
2018-02-17T12:47:14.810Z,9.50
2018-02-17T12:49:43.163Z,9.60
2018-02-17T12:52:11.474Z,9.70
2018-02-17T12:54:39.746Z,9.60
2018-02-17T12:57:08.051Z,9.70
2018-02-17T12:59:36.415Z,9.70
2018-02-17T13:02:05.056Z,9.80
2018-02-17T13:04:34.097Z,9.80
2018-02-17T13:07:02.402Z,9.70
2018-02-17T13:09:30.695Z,9.70
2018-02-17T13:11:58.981Z,9.70
2018-02-17T13:14:27.300Z,9.60
2018-02-17T13:16:55.577Z,9.50
2018-02-17T13:19:24.611Z,9.50
2018-02-17T13:21:52.879Z,9.50
2018-02-17T13:24:21.152Z,9.50
2018-02-17T13:26:49.462Z,9.50
2018-02-17T13:29:18.522Z,9.40
2018-02-17T13:31:46.832Z,9.40
2018-02-17T13:34:16.202Z,9.40
2018-02-17T13:36:44.595Z,9.30
2018-02-17T13:39:12.859Z,9.30
2018-02-17T13:41:41.170Z,9.20
2018-02-17T13:44:10.345Z,9.20
2018-02-17T13:46:38.943Z,9.10
2018-02-17T13:49:07.234Z,9.10
2018-02-17T13:51:35.507Z,9.10
2018-02-17T13:54:03.812Z,9.10
2018-02-17T13:56:32.081Z,9.10
2018-02-17T13:59:01.165Z,9.20
2018-02-17T14:01:29.459Z,9.10
2018-02-17T14:03:58.525Z,9.20
2018-02-17T14:06:26.802Z,9.20
2018-02-17T14:08:56.211Z,9.30
2018-02-17T14:11:24.513Z,9.30
2018-02-17T14:13:53.662Z,9.30
2018-02-17T14:16:21.950Z,9.30
2018-02-17T14:18:50.232Z,9.30
2018-02-17T14:21:18.806Z,9.30
2018-02-17T14:23:47.106Z,9.30
2018-02-17T14:26:15.449Z,9.30
2018-02-17T14:28:43.747Z,9.30
2018-02-17T14:31:12.045Z,9.20
2018-02-17T14:33:40.371Z,9.20
2018-02-17T14:36:08.695Z,9.10
2018-02-17T14:38:37.253Z,9.00
2018-02-17T14:41:05.575Z,9.00
2018-02-17T14:43:34.622Z,8.80
2018-02-17T14:46:02.933Z,8.80
2018-02-17T14:48:31.243Z,8.70
2018-02-17T14:51:00.306Z,8.60
2018-02-17T14:53:28.620Z,8.60
2018-02-17T14:55:56.912Z,8.60
2018-02-17T14:58:25.218Z,8.60
2018-02-17T15:00:53.513Z,8.50
2018-02-17T15:03:21.782Z,8.50
2018-02-17T15:05:50.797Z,8.50
2018-02-17T15:08:19.070Z,8.50
2018-02-17T15:10:47.352Z,8.40
2018-02-17T15:13:15.650Z,8.30
2018-02-17T15:15:43.966Z,8.20
2018-02-17T15:18:13.032Z,8.10
2018-02-17T15:20:41.334Z,8.00
2018-02-17T15:23:09.620Z,8.00
2018-02-17T15:25:38.269Z,7.90
2018-02-17T15:28:06.951Z,7.90
2018-02-17T15:30:38.024Z,7.80
2018-02-17T15:33:07.810Z,7.90
2018-02-17T15:35:36.865Z,7.90
2018-02-17T15:38:05.529Z,7.80
2018-02-17T15:40:35.598Z,7.80
2018-02-17T15:43:03.994Z,7.80
2018-02-17T15:45:32.346Z,7.80
2018-02-17T15:48:00.648Z,7.70
2018-02-17T15:50:29.723Z,7.70
2018-02-17T15:52:58.061Z,7.70
2018-02-17T15:55:26.838Z,7.60
2018-02-17T15:57:55.193Z,7.60
2018-02-17T16:00:23.452Z,7.60
2018-02-17T16:02:51.769Z,7.60
2018-02-17T16:05:20.860Z,7.50
2018-02-17T16:07:49.258Z,7.50
2018-02-17T16:10:17.574Z,7.50
2018-02-17T16:12:45.972Z,7.50
2018-02-17T16:15:14.249Z,7.50
2018-02-17T16:17:42.572Z,7.50
2018-02-17T16:20:11.627Z,7.40
2018-02-17T16:22:40.956Z,7.30
2018-02-17T16:25:09.240Z,7.30
2018-02-17T16:27:37.572Z,7.30
2018-02-17T16:30:05.916Z,7.20
2018-02-17T16:32:34.218Z,7.20
2018-02-17T16:35:02.563Z,7.20
2018-02-17T16:37:31.756Z,7.20
2018-02-17T16:40:00.151Z,7.20
2018-02-17T16:42:28.696Z,7.10
2018-02-17T16:44:58.093Z,7.10
2018-02-17T16:47:27.157Z,7.20
2018-02-17T16:49:55.474Z,7.10
2018-02-17T16:52:24.561Z,6.90
2018-02-17T16:54:52.841Z,7.40
2018-02-17T16:57:21.966Z,7.20
2018-02-17T16:59:50.261Z,7.10
2018-02-17T17:02:19.008Z,7.10
2018-02-17T17:04:48.081Z,7.10
2018-02-17T17:07:16.340Z,7.10
2018-02-17T17:09:44.798Z,7.10
2018-02-17T17:12:13.095Z,7.10
2018-02-17T17:14:41.416Z,7.10
2018-02-17T17:17:10.471Z,7.10
2018-02-17T17:19:38.786Z,7.10
2018-02-17T17:22:07.854Z,7.10
2018-02-17T17:24:36.590Z,7.00
2018-02-17T17:27:04.938Z,7.00
2018-02-17T17:29:33.258Z,7.00
2018-02-17T17:32:01.580Z,6.90
2018-02-17T17:34:29.867Z,6.80
2018-02-17T17:36:59.105Z,6.80
2018-02-17T17:39:27.488Z,6.70
2018-02-17T17:41:55.873Z,6.70
2018-02-17T17:44:24.141Z,6.60
2018-02-17T17:46:52.797Z,6.60
2018-02-17T17:49:21.103Z,6.60
2018-02-17T17:51:50.154Z,6.60
2018-02-17T17:54:18.463Z,6.60
2018-02-17T17:56:47.567Z,6.50
2018-02-17T17:59:15.860Z,6.50
2018-02-17T18:01:44.181Z,6.50
2018-02-17T18:04:12.506Z,6.40
2018-02-17T18:06:41.595Z,6.30
2018-02-17T18:09:10.686Z,6.30
2018-02-17T18:11:39.018Z,6.30
2018-02-17T18:14:07.303Z,6.20
2018-02-17T18:16:35.639Z,6.20
2018-02-17T18:19:04.810Z,6.20
2018-02-17T18:21:33.117Z,6.20
2018-02-17T18:24:02.160Z,6.20
2018-02-17T18:26:30.903Z,6.20
2018-02-17T18:28:59.971Z,6.20
2018-02-17T18:31:28.242Z,6.20
2018-02-17T18:33:56.579Z,6.20
2018-02-17T18:36:24.904Z,6.10
2018-02-17T18:38:53.216Z,6.10
2018-02-17T18:41:21.534Z,6.10
2018-02-17T18:43:50.119Z,6.10
2018-02-17T18:46:18.409Z,6.10
2018-02-17T18:48:47.537Z,6.00
2018-02-17T18:51:15.865Z,6.00
2018-02-17T18:53:44.208Z,6.00
2018-02-17T18:56:13.604Z,6.00
2018-02-17T18:58:41.963Z,6.00
2018-02-17T19:01:10.274Z,6.10
2018-02-17T19:03:39.616Z,6.10
2018-02-17T19:06:07.889Z,6.20
2018-02-17T19:08:36.229Z,6.20
2018-02-17T19:11:04.522Z,6.20
2018-02-17T19:13:32.850Z,6.20
2018-02-17T19:16:01.134Z,6.20
2018-02-17T19:18:29.743Z,6.20
2018-02-17T19:20:59.052Z,6.20
2018-02-17T19:23:28.083Z,6.20
2018-02-17T19:25:56.497Z,6.20
2018-02-17T19:28:24.847Z,6.20
2018-02-17T19:30:53.170Z,6.20
2018-02-17T19:33:21.453Z,6.20
2018-02-17T19:35:50.534Z,6.20
2018-02-17T19:38:18.802Z,6.20
2018-02-17T19:40:47.415Z,6.20
2018-02-17T19:43:16.472Z,6.10
2018-02-17T19:45:44.822Z,6.10
2018-02-17T19:48:13.119Z,6.10
2018-02-17T19:50:41.450Z,6.10
2018-02-17T19:53:10.569Z,6.20
2018-02-17T19:55:39.626Z,6.10
2018-02-17T19:58:07.921Z,6.10
2018-02-17T20:00:36.237Z,6.10
2018-02-17T20:03:04.873Z,6.20
2018-02-17T20:05:33.957Z,6.20
2018-02-17T20:08:02.317Z,6.10
2018-02-17T20:10:30.862Z,6.10
2018-02-17T20:12:59.175Z,6.10
2018-02-17T20:15:28.274Z,6.10
2018-02-17T20:17:56.583Z,6.10
2018-02-17T20:20:24.902Z,6.10
2018-02-17T20:22:53.211Z,6.10
2018-02-17T20:25:21.803Z,6.10
2018-02-17T20:27:50.122Z,6.10
2018-02-17T20:30:19.212Z,6.00
2018-02-17T20:32:48.314Z,6.00
2018-02-17T20:35:17.376Z,5.90
2018-02-17T20:37:46.126Z,6.00
2018-02-17T20:40:14.459Z,5.90
2018-02-17T20:42:43.075Z,5.90
2018-02-17T20:45:11.413Z,5.90
2018-02-17T20:47:39.770Z,5.90
2018-02-17T20:50:08.091Z,5.90
2018-02-17T20:52:37.173Z,5.90
2018-02-17T20:55:06.567Z,5.90
2018-02-17T20:57:35.673Z,5.90
2018-02-17T21:00:04.077Z,5.90
2018-02-17T21:02:33.843Z,5.90
2018-02-17T21:05:02.515Z,5.90
2018-02-17T21:07:30.807Z,5.90
2018-02-17T21:09:59.098Z,5.90
2018-02-17T21:12:27.425Z,5.90
2018-02-17T21:14:55.766Z,5.90
2018-02-17T21:17:24.105Z,5.90
2018-02-17T21:19:52.395Z,5.90
2018-02-17T21:22:21.128Z,5.80
2018-02-17T21:24:49.406Z,5.80
2018-02-17T21:27:18.442Z,5.80
2018-02-17T21:29:46.760Z,5.80
2018-02-17T21:32:15.073Z,5.80
2018-02-17T21:34:44.142Z,5.70
2018-02-17T21:37:12.421Z,5.70
2018-02-17T21:39:40.731Z,5.70
2018-02-17T21:42:09.028Z,5.70
2018-02-17T21:44:40.440Z,5.70
2018-02-17T21:47:09.497Z,5.70
2018-02-17T21:49:37.806Z,5.60
2018-02-17T21:52:06.907Z,5.60
2018-02-17T21:54:35.962Z,5.60
2018-02-17T21:57:04.273Z,5.60
2018-02-17T21:59:32.561Z,5.80
2018-02-17T22:02:01.670Z,5.50
2018-02-17T22:04:30.714Z,5.50
2018-02-17T22:06:59.288Z,5.50
2018-02-17T22:09:27.602Z,5.50
2018-02-17T22:11:55.879Z,5.50
2018-02-17T22:14:24.203Z,5.50
2018-02-17T22:16:52.496Z,5.50
2018-02-17T22:19:21.045Z,5.60
2018-02-17T22:21:49.320Z,5.60
2018-02-17T22:24:18.352Z,5.60
2018-02-17T22:26:47.419Z,5.60
2018-02-17T22:29:16.470Z,5.60
2018-02-17T22:31:44.779Z,5.60
2018-02-17T22:34:13.056Z,5.60
2018-02-17T22:36:41.366Z,5.50
2018-02-17T22:39:09.643Z,5.50
2018-02-17T22:41:38.218Z,5.50
2018-02-17T22:44:07.246Z,5.50
2018-02-17T22:46:35.579Z,5.50
2018-02-17T22:49:03.868Z,5.50
2018-02-17T22:51:32.162Z,5.50
2018-02-17T22:54:00.478Z,5.50
2018-02-17T22:56:28.783Z,5.50
2018-02-17T22:58:57.085Z,5.50
2018-02-17T23:01:25.366Z,5.50
2018-02-17T23:03:53.702Z,5.50
2018-02-17T23:06:21.962Z,5.50
2018-02-17T23:08:50.568Z,5.50
2018-02-17T23:11:18.854Z,5.50
2018-02-17T23:13:47.150Z,5.60
2018-02-17T23:16:15.445Z,5.50
2018-02-17T23:18:43.728Z,5.60
2018-02-17T23:21:12.018Z,5.60
2018-02-17T23:23:40.320Z,5.50
2018-02-17T23:26:08.610Z,5.60
2018-02-17T23:28:36.940Z,5.50
2018-02-17T23:31:05.612Z,5.60
2018-02-17T23:33:34.730Z,5.60
2018-02-17T23:36:02.994Z,5.50
2018-02-17T23:38:31.305Z,5.60
2018-02-17T23:40:59.565Z,5.60
2018-02-17T23:43:27.895Z,5.60
2018-02-17T23:45:56.174Z,5.50
2018-02-17T23:48:24.473Z,5.50
2018-02-17T23:50:52.766Z,5.50
2018-02-17T23:53:21.520Z,5.50
2018-02-17T23:56:05.248Z,5.50
2018-02-17T23:58:33.833Z,5.50
